Time;durP1;ratioP1;P1;durP2;ratioP2;P2;SDS_P1;SDS_P2;PMS_P1;PMS_P2;Temp;Humidity;BMP_temperature;BMP_pressure;BME280_temperature;BME280_humidity;BME280_pressure;Samples;Min_cycle;Max_cycle;Signal;HPM_P1;HPM_P2
2024/03/06 00:00:04;;;;;;;19.33;9.88;;;7.20;99.90;;;;;;5021642;28;20050;-70
2024/03/06 00:02:31;;;;;;;19.77;10.63;;;7.20;99.90;;;;;;5025285;28;20136;-70
2024/03/06 00:04:58;;;;;;;18.05;9.95;;;7.20;99.90;;;;;;5026233;28;20046;-71
2024/03/06 00:07:26;;;;;;;16.10;10.35;;;7.20;99.90;;;;;;5025706;28;20049;-70
2024/03/06 00:09:53;;;;;;;14.77;8.52;;;7.30;99.90;;;;;;5026430;28;20524;-70
2024/03/06 00:12:20;;;;;;;18.67;10.48;;;7.30;99.90;;;;;;5027038;28;20049;-70
2024/03/06 00:14:46;;;;;;;15.90;9.65;;;7.30;99.90;;;;;;5024672;28;20045;-70
2024/03/06 00:17:13;;;;;;;17.88;11.07;;;7.30;99.90;;;;;;5026224;28;20053;-70
2024/03/06 00:19:40;;;;;;;16.33;10.45;;;7.40;99.90;;;;;;5024619;28;20478;-70
2024/03/06 00:22:07;;;;;;;16.80;9.45;;;7.40;99.90;;;;;;5025449;28;20060;-70
2024/03/06 00:24:34;;;;;;;16.27;10.85;;;7.40;99.90;;;;;;5024559;28;20157;-70
2024/03/06 00:27:01;;;;;;;15.48;10.10;;;7.40;99.90;;;;;;5013432;28;20053;-69
2024/03/06 00:29:28;;;;;;;18.88;11.05;;;7.40;99.90;;;;;;5023981;28;20099;-70
2024/03/06 00:31:58;;;;;;;14.65;10.23;;;7.40;99.90;;;;;;5013457;28;20135;-69
2024/03/06 00:34:26;;;;;;;15.70;11.30;;;7.40;99.90;;;;;;5011398;28;20073;-70
2024/03/06 00:36:54;;;;;;;19.40;10.77;;;7.40;99.90;;;;;;5021594;28;20561;-69
2024/03/06 00:39:21;;;;;;;16.08;11.18;;;7.40;99.90;;;;;;5018681;28;20046;-70
2024/03/06 00:41:48;;;;;;;17.65;10.93;;;7.40;99.90;;;;;;5024592;28;20099;-69
2024/03/06 00:44:15;;;;;;;18.67;11.88;;;7.40;99.90;;;;;;5026282;28;20041;-69
2024/03/06 00:46:42;;;;;;;17.65;12.10;;;7.40;99.90;;;;;;5020334;28;20582;-69
2024/03/06 00:49:09;;;;;;;17.95;12.10;;;7.30;99.90;;;;;;5024367;28;20053;-69
2024/03/06 00:51:36;;;;;;;17.13;11.80;;;7.30;99.90;;;;;;5024009;28;20095;-68
2024/03/06 00:54:14;;;;;;;18.90;12.38;;;7.20;99.90;;;;;;5025919;28;20136;-71
2024/03/06 00:56:41;;;;;;;21.73;11.77;;;7.10;99.90;;;;;;5020865;28;20139;-70
2024/03/06 00:59:07;;;;;;;17.85;11.52;;;7.10;99.90;;;;;;5024085;28;20521;-72
2024/03/06 01:01:35;;;;;;;16.85;11.48;;;7.10;99.90;;;;;;5025059;28;20504;-69
2024/03/06 01:04:02;;;;;;;20.17;11.75;;;7.00;99.90;;;;;;5016989;28;20054;-69
2024/03/06 01:06:29;;;;;;;14.52;9.88;;;7.10;99.90;;;;;;5024520;28;20052;-69
2024/03/06 01:08:56;;;;;;;15.55;9.88;;;7.00;99.90;;;;;;5025880;28;20501;-69
2024/03/06 01:11:24;;;;;;;19.30;12.45;;;7.00;99.90;;;;;;5021421;28;20053;-69
2024/03/06 01:13:51;;;;;;;15.50;9.27;;;6.90;99.90;;;;;;5024271;28;20052;-69
2024/03/06 01:16:18;;;;;;;15.05;9.77;;;6.90;99.90;;;;;;5021130;28;20047;-69
2024/03/06 01:18:45;;;;;;;19.02;8.90;;;6.90;99.90;;;;;;5024268;28;20134;-70
2024/03/06 01:21:12;;;;;;;19.00;9.63;;;6.90;99.90;;;;;;5024008;28;20104;-69
2024/03/06 01:23:38;;;;;;;16.63;9.88;;;6.80;99.90;;;;;;5023810;28;20057;-69
2024/03/06 01:26:05;;;;;;;15.50;9.25;;;6.80;99.90;;;;;;5025746;28;20056;-70
2024/03/06 01:28:33;;;;;;;15.85;9.75;;;6.80;99.90;;;;;;5024378;28;20053;-70
2024/03/06 01:31:00;;;;;;;15.18;9.55;;;6.80;99.90;;;;;;5024771;28;20135;-69
2024/03/06 01:33:27;;;;;;;16.95;9.05;;;6.70;99.90;;;;;;5024621;28;20067;-69
2024/03/06 01:35:54;;;;;;;15.90;8.85;;;6.70;99.90;;;;;;5022883;28;20042;-69
2024/03/06 01:38:21;;;;;;;19.98;10.35;;;6.70;99.90;;;;;;5020698;28;20132;-69
2024/03/06 01:40:48;;;;;;;17.02;9.73;;;6.60;99.90;;;;;;5024376;28;20046;-69
2024/03/06 01:43:22;;;;;;;15.63;9.00;;;6.60;99.90;;;;;;5024207;28;20060;-69
2024/03/06 01:45:50;;;;;;;14.40;9.38;;;6.60;99.90;;;;;;5022223;28;20053;-70
2024/03/06 01:48:17;;;;;;;13.57;8.77;;;6.50;99.90;;;;;;5035310;28;20057;-69
2024/03/06 01:50:44;;;;;;;13.95;8.45;;;6.50;99.90;;;;;;5000238;28;20050;-69
2024/03/06 01:53:12;;;;;;;12.55;8.38;;;6.40;99.90;;;;;;5036949;28;21892;-70
2024/03/06 01:55:38;;;;;;;13.75;9.38;;;6.30;99.90;;;;;;5023820;28;20068;-69
2024/03/06 01:58:05;;;;;;;13.82;8.68;;;6.30;99.90;;;;;;5021170;28;20042;-70
2024/03/06 02:00:33;;;;;;;19.60;8.82;;;6.20;99.90;;;;;;5021732;28;20102;-70
2024/03/06 02:03:00;;;;;;;16.98;9.98;;;6.20;99.90;;;;;;5023521;28;20056;-70
2024/03/06 02:05:29;;;;;;;18.45;8.70;;;6.20;99.90;;;;;;5020914;28;20049;-69
2024/03/06 02:07:56;;;;;;;14.13;9.20;;;6.10;99.90;;;;;;5025015;28;20057;-70
2024/03/06 02:10:23;;;;;;;14.15;8.68;;;6.00;99.90;;;;;;5022303;28;20037;-69
2024/03/06 02:12:52;;;;;;;12.15;8.30;;;6.00;99.90;;;;;;5019296;28;20053;-69
2024/03/06 02:15:19;;;;;;;18.10;11.25;;;6.00;99.90;;;;;;5019202;28;20199;-69
2024/03/06 02:17:46;;;;;;;18.58;11.02;;;5.90;99.90;;;;;;5018066;28;20100;-69
2024/03/06 02:20:14;;;;;;;19.70;11.35;;;5.90;99.90;;;;;;5015460;28;20045;-68
2024/03/06 02:22:41;;;;;;;15.32;9.95;;;5.90;99.90;;;;;;5028365;28;20049;-69
2024/03/06 02:25:08;;;;;;;15.65;9.43;;;5.90;99.90;;;;;;5022597;28;20054;-68
2024/03/06 02:27:36;;;;;;;15.35;10.02;;;5.90;99.90;;;;;;5009555;28;20076;-69
2024/03/06 02:30:03;;;;;;;16.08;10.20;;;5.80;99.90;;;;;;5024083;28;20053;-69
2024/03/06 02:32:30;;;;;;;15.77;9.10;;;5.80;99.90;;;;;;5030702;28;20131;-69
2024/03/06 02:34:57;;;;;;;18.33;9.48;;;5.70;99.90;;;;;;5029866;28;20549;-69
2024/03/06 02:37:24;;;;;;;16.42;9.32;;;5.70;99.90;;;;;;5031771;28;20045;-69
2024/03/06 02:39:51;;;;;;;17.33;9.43;;;5.70;99.90;;;;;;5025701;28;20049;-69
2024/03/06 02:42:18;;;;;;;14.05;9.05;;;5.70;99.90;;;;;;5027560;28;20057;-70
2024/03/06 02:44:45;;;;;;;16.70;10.07;;;5.60;99.90;;;;;;5027028;28;20634;-70
2024/03/06 02:47:11;;;;;;;17.15;9.77;;;5.60;99.90;;;;;;5027367;28;20108;-70
2024/03/06 02:49:38;;;;;;;16.48;9.93;;;5.50;99.90;;;;;;5030197;28;20057;-70
2024/03/06 02:52:05;;;;;;;19.55;10.55;;;5.40;99.90;;;;;;5029006;28;20060;-71
2024/03/06 02:54:32;;;;;;;18.67;11.75;;;5.30;99.90;;;;;;5026355;28;20053;-71
2024/03/06 02:56:58;;;;;;;16.33;10.55;;;5.30;99.90;;;;;;5024316;28;20046;-71
2024/03/06 02:59:26;;;;;;;19.02;11.40;;;5.40;99.90;;;;;;5024471;28;20539;-71
2024/03/06 03:01:53;;;;;;;21.08;11.25;;;5.40;99.90;;;;;;5027335;28;20507;-71
2024/03/06 03:04:19;;;;;;;20.90;10.55;;;5.50;99.90;;;;;;5027977;28;20045;-71
2024/03/06 03:06:46;;;;;;;24.67;13.60;;;5.40;99.90;;;;;;5020142;28;20050;-71
2024/03/06 03:09:14;;;;;;;16.27;9.68;;;5.50;99.90;;;;;;5027820;28;20525;-71
2024/03/06 03:11:43;;;;;;;18.10;10.57;;;5.40;99.90;;;;;;5022190;28;20493;-71
2024/03/06 03:14:09;;;;;;;19.48;11.07;;;5.50;99.90;;;;;;5026400;28;20131;-71
2024/03/06 03:16:37;;;;;;;18.38;10.75;;;5.50;99.90;;;;;;5027284;28;20081;-71
2024/03/06 03:19:04;;;;;;;19.63;11.60;;;5.50;99.90;;;;;;5026197;28;20077;-69
2024/03/06 03:21:32;;;;;;;19.95;10.35;;;5.40;99.90;;;;;;5025121;28;20053;-69
2024/03/06 03:23:59;;;;;;;23.17;12.73;;;5.40;99.90;;;;;;5024698;28;20053;-69
2024/03/06 03:26:25;;;;;;;23.00;12.38;;;5.40;99.90;;;;;;5027603;28;20037;-68
2024/03/06 03:28:52;;;;;;;20.30;11.50;;;5.40;99.90;;;;;;5026283;28;20056;-69
2024/03/06 03:31:19;;;;;;;22.55;11.90;;;5.40;99.90;;;;;;5021943;28;20061;-69
2024/03/06 03:33:46;;;;;;;17.35;11.80;;;5.40;99.90;;;;;;5027476;28;20049;-70
2024/03/06 03:36:13;;;;;;;22.00;12.68;;;5.40;99.90;;;;;;5018397;28;20614;-70
2024/03/06 03:38:42;;;;;;;25.15;12.68;;;5.50;99.90;;;;;;5026862;28;20054;-71
2024/03/06 03:41:09;;;;;;;20.60;11.73;;;5.40;99.90;;;;;;5024117;28;20049;-69
2024/03/06 03:43:39;;;;;;;20.05;12.30;;;5.50;99.90;;;;;;5021369;28;20049;-69
2024/03/06 03:46:06;;;;;;;20.77;13.05;;;5.50;99.90;;;;;;5019103;28;20153;-69
2024/03/06 03:48:36;;;;;;;17.50;10.98;;;5.60;99.90;;;;;;5022914;28;20054;-70
2024/03/06 03:51:04;;;;;;;23.40;12.38;;;5.70;99.90;;;;;;5026887;28;20432;-69
2024/03/06 03:53:32;;;;;;;22.88;12.50;;;5.70;99.90;;;;;;5026384;28;20077;-69
2024/03/06 03:55:59;;;;;;;20.33;11.02;;;5.60;99.90;;;;;;5024788;28;20110;-70
2024/03/06 03:58:26;;;;;;;18.67;10.73;;;5.70;99.90;;;;;;5027965;28;20436;-69
2024/03/06 04:00:54;;;;;;;20.33;12.10;;;5.70;99.90;;;;;;5025609;28;20103;-69
2024/03/06 04:03:22;;;;;;;19.58;11.90;;;5.80;99.90;;;;;;5024372;28;20064;-69
2024/03/06 04:05:49;;;;;;;21.92;12.68;;;5.80;99.90;;;;;;5023735;28;20057;-69
2024/03/06 04:08:16;;;;;;;19.35;12.27;;;5.80;99.90;;;;;;5024157;28;20049;-69
2024/03/06 04:10:46;;;;;;;17.60;12.27;;;5.80;99.90;;;;;;5025828;28;20049;-70
2024/03/06 04:13:14;;;;;;;20.17;12.10;;;5.90;99.90;;;;;;5023456;28;20134;-69
2024/03/06 04:15:41;;;;;;;27.45;15.07;;;5.90;99.90;;;;;;5023988;28;20132;-69
2024/03/06 04:18:08;;;;;;;27.50;13.32;;;5.90;99.90;;;;;;5022326;28;20046;-70
2024/03/06 04:20:35;;;;;;;24.25;15.13;;;5.80;99.90;;;;;;5025423;28;20069;-71
2024/03/06 04:23:02;;;;;;;26.33;14.15;;;5.80;99.90;;;;;;5026852;28;20045;-70
2024/03/06 04:25:29;;;;;;;27.13;15.68;;;5.70;99.90;;;;;;5026362;28;20053;-69
2024/03/06 04:27:55;;;;;;;25.15;14.85;;;5.80;99.90;;;;;;5022156;28;20052;-69
2024/03/06 04:30:23;;;;;;;28.63;14.68;;;5.90;99.90;;;;;;5026941;28;20100;-69
2024/03/06 04:32:49;;;;;;;28.77;14.90;;;5.90;99.90;;;;;;5022863;28;20172;-69
2024/03/06 04:35:16;;;;;;;26.55;15.02;;;5.90;99.90;;;;;;5024655;28;20143;-69
2024/03/06 04:37:43;;;;;;;31.30;15.00;;;5.80;99.90;;;;;;5026852;28;20062;-68
2024/03/06 04:40:11;;;;;;;25.92;15.38;;;5.80;99.90;;;;;;5025750;28;20234;-69
2024/03/06 04:42:38;;;;;;;26.13;15.25;;;5.80;99.90;;;;;;5026424;28;20086;-69
2024/03/06 04:45:12;;;;;;;30.67;16.65;;;5.90;99.90;;;;;;5025721;28;20057;-69
2024/03/06 04:47:39;;;;;;;26.73;16.35;;;6.00;99.90;;;;;;5026381;28;20053;-69
2024/03/06 04:50:10;;;;;;;26.63;15.77;;;6.00;99.90;;;;;;5023131;28;20485;-69
2024/03/06 04:52:38;;;;;;;25.33;15.68;;;6.10;99.90;;;;;;5017669;28;20075;-69
2024/03/06 04:55:06;;;;;;;29.00;15.60;;;6.10;99.90;;;;;;5026385;28;20103;-68
2024/03/06 04:57:34;;;;;;;27.63;15.05;;;6.10;99.90;;;;;;5026107;28;20072;-67
2024/03/06 05:00:05;;;;;;;24.73;14.75;;;6.10;99.90;;;;;;5022981;28;20690;-69
2024/03/06 05:02:34;;;;;;;32.80;16.58;;;6.20;99.90;;;;;;5027391;28;20049;-69
2024/03/06 05:05:18;;;;;;;24.88;14.35;;;6.20;99.90;;;;;;5023814;28;20056;-69
2024/03/06 05:08:02;;;;;;;26.80;15.30;;;6.20;99.90;;;;;;5019153;28;20124;-69
2024/03/06 05:10:46;;;;;;;27.45;15.32;;;6.20;99.90;;;;;;5019547;28;20079;-69
2024/03/06 05:13:31;;;;;;;29.95;15.75;;;6.20;99.90;;;;;;5016242;28;20140;-69
2024/03/06 05:16:15;;;;;;;27.67;15.15;;;6.20;99.90;;;;;;5023257;28;20035;-70
2024/03/06 05:18:59;;;;;;;23.67;14.93;;;6.20;99.90;;;;;;5024346;28;20040;-68
2024/03/06 05:21:43;;;;;;;24.88;14.25;;;6.20;99.90;;;;;;5023376;28;20044;-70
2024/03/06 05:24:28;;;;;;;29.02;15.77;;;6.20;99.90;;;;;;5009758;28;20079;-69
2024/03/06 05:27:17;;;;;;;26.88;15.00;;;6.20;99.90;;;;;;5019829;28;20103;-69
2024/03/06 05:30:01;;;;;;;27.10;15.50;;;6.30;99.90;;;;;;5023716;28;20091;-69
2024/03/06 05:32:48;;;;;;;27.23;15.75;;;6.30;99.90;;;;;;5022613;28;20041;-69
2024/03/06 05:35:33;;;;;;;25.35;14.65;;;6.30;99.90;;;;;;5019457;28;20437;-69
2024/03/06 05:38:17;;;;;;;30.15;15.88;;;6.30;99.90;;;;;;5019027;28;20090;-68
2024/03/06 05:41:01;;;;;;;26.38;15.70;;;6.20;99.90;;;;;;5021549;28;20046;-68
2024/03/06 05:43:46;;;;;;;30.55;15.57;;;6.20;99.90;;;;;;5020543;28;20129;-69
2024/03/06 05:46:30;;;;;;;25.73;15.52;;;6.20;99.90;;;;;;5023872;28;20116;-69
2024/03/06 05:49:14;;;;;;;26.13;15.90;;;6.30;99.90;;;;;;5024578;28;20603;-69
2024/03/06 05:51:58;;;;;;;30.50;15.90;;;6.40;99.90;;;;;;5025056;28;20139;-69
2024/03/06 05:54:42;;;;;;;25.90;15.40;;;6.30;99.90;;;;;;5022325;28;20057;-70
2024/03/06 05:57:27;;;;;;;26.17;15.90;;;6.30;99.90;;;;;;5022115;28;20073;-69
2024/03/06 06:00:11;;;;;;;27.88;15.40;;;6.30;99.90;;;;;;5030127;28;20075;-69
2024/03/06 06:02:38;;;;;;;34.58;16.38;;;6.20;99.90;;;;;;5024802;28;20053;-70
2024/03/06 06:05:07;;;;;;;32.67;18.33;;;6.40;99.90;;;;;;5024383;28;20053;-69
2024/03/06 06:07:49;;;;;;;27.55;16.52;;;6.30;99.90;;;;;;5017856;28;20058;-70
2024/03/06 06:10:17;;;;;;;37.42;16.52;;;6.30;99.90;;;;;;5022540;28;20095;-69
2024/03/06 06:12:48;;;;;;;36.53;17.90;;;6.30;99.90;;;;;;5018696;28;20042;-69
2024/03/06 06:15:15;;;;;;;32.13;17.90;;;6.30;99.90;;;;;;5024680;28;20057;-69
2024/03/06 06:17:45;;;;;;;25.50;15.18;;;6.20;99.90;;;;;;5021228;28;20057;-70
2024/03/06 06:20:16;;;;;;;32.20;17.20;;;6.30;99.90;;;;;;5016533;28;20056;-69
2024/03/06 06:22:44;;;;;;;31.52;18.58;;;6.20;99.90;;;;;;5018597;28;20128;-69
2024/03/06 06:25:12;;;;;;;30.83;17.38;;;6.30;99.90;;;;;;5018471;28;20046;-69
2024/03/06 06:27:39;;;;;;;31.45;16.35;;;6.30;99.90;;;;;;5017341;28;20053;-69
2024/03/06 06:30:11;;;;;;;30.70;17.45;;;6.40;99.90;;;;;;5016561;28;20064;-69
2024/03/06 06:32:40;;;;;;;32.83;17.27;;;6.30;99.90;;;;;;5018481;28;20042;-71
2024/03/06 06:35:09;;;;;;;33.55;17.65;;;6.40;99.90;;;;;;5023304;28;20042;-70
2024/03/06 06:37:36;;;;;;;33.33;19.42;;;6.40;99.90;;;;;;5023224;28;20057;-68
2024/03/06 06:40:06;;;;;;;32.17;18.00;;;6.50;99.90;;;;;;5023432;28;20247;-68
2024/03/06 06:42:34;;;;;;;39.80;17.73;;;6.50;99.90;;;;;;5032478;28;20122;-71
2024/03/06 06:45:01;;;;;;;44.35;20.05;;;6.50;99.90;;;;;;5023358;28;20053;-70
2024/03/06 06:47:28;;;;;;;39.63;17.48;;;6.50;99.90;;;;;;5025449;28;20049;-70
2024/03/06 06:49:55;;;;;;;39.75;18.63;;;6.50;99.90;;;;;;5020694;28;20054;-70
2024/03/06 06:52:22;;;;;;;40.00;19.55;;;6.50;99.90;;;;;;5020919;28;20080;-69
2024/03/06 06:54:51;;;;;;;38.10;20.67;;;6.50;99.90;;;;;;5024053;28;20060;-68
2024/03/06 06:57:18;;;;;;;35.60;19.73;;;6.50;99.90;;;;;;5023832;28;20064;-69
2024/03/06 06:59:45;;;;;;;40.63;21.77;;;6.50;99.90;;;;;;5025135;28;20049;-68
2024/03/06 07:02:12;;;;;;;49.45;25.13;;;6.60;99.90;;;;;;5025673;28;20068;-68
2024/03/06 07:04:41;;;;;;;50.03;24.52;;;6.60;99.90;;;;;;5027374;28;20058;-69
2024/03/06 07:07:08;;;;;;;56.40;26.45;;;6.60;99.90;;;;;;5021169;28;20138;-69
2024/03/06 07:09:35;;;;;;;56.45;28.05;;;6.70;99.90;;;;;;5029393;28;20057;-68
2024/03/06 07:12:02;;;;;;;58.47;29.50;;;6.80;99.90;;;;;;5028215;28;20095;-69
2024/03/06 07:14:29;;;;;;;58.22;29.95;;;6.90;99.90;;;;;;5025458;28;20060;-70
2024/03/06 07:16:58;;;;;;;49.53;27.52;;;6.90;99.90;;;;;;5025335;28;20046;-70
2024/03/06 07:19:25;;;;;;;71.53;31.23;;;6.90;99.90;;;;;;5026765;28;20992;-69
2024/03/06 07:21:54;;;;;;;53.83;29.08;;;6.90;99.90;;;;;;5029778;28;20053;-70
2024/03/06 07:24:21;;;;;;;62.13;30.25;;;6.90;99.90;;;;;;5026227;28;20123;-70
2024/03/06 07:26:48;;;;;;;58.90;28.55;;;6.90;99.90;;;;;;5032799;28;20460;-71
2024/03/06 07:29:15;;;;;;;51.65;26.50;;;6.90;99.90;;;;;;5034609;28;20523;-70
2024/03/06 07:31:42;;;;;;;63.55;28.20;;;6.90;99.90;;;;;;5027743;28;20080;-70
2024/03/06 07:34:09;;;;;;;68.55;32.47;;;6.90;99.90;;;;;;5009863;28;20057;-69
2024/03/06 07:36:36;;;;;;;58.60;29.00;;;6.80;99.90;;;;;;5029833;28;20149;-68
2024/03/06 07:39:04;;;;;;;53.22;27.52;;;6.90;99.90;;;;;;5033760;28;20045;-69
2024/03/06 07:41:35;;;;;;;55.10;27.88;;;6.90;99.90;;;;;;5034237;28;20531;-70
2024/03/06 07:44:02;;;;;;;62.35;29.70;;;6.90;99.90;;;;;;5033669;28;20510;-68
2024/03/06 07:46:29;;;;;;;62.38;30.27;;;7.00;99.90;;;;;;5031761;28;20130;-70
2024/03/06 07:48:56;;;;;;;59.95;28.35;;;7.00;99.90;;;;;;5033444;28;20065;-68
2024/03/06 07:51:23;;;;;;;59.03;30.63;;;7.10;99.90;;;;;;5025318;28;20519;-68
2024/03/06 07:53:50;;;;;;;53.60;28.02;;;7.10;99.90;;;;;;5021811;28;21765;-69
2024/03/06 07:56:17;;;;;;;65.03;32.33;;;7.20;99.90;;;;;;5027039;28;20053;-67
2024/03/06 07:58:44;;;;;;;60.85;31.55;;;7.20;99.90;;;;;;5020416;28;20120;-69
2024/03/06 08:01:12;;;;;;;55.70;30.48;;;7.20;99.90;;;;;;5023525;28;20696;-68
2024/03/06 08:03:40;;;;;;;59.80;30.70;;;7.20;99.90;;;;;;5024848;28;20061;-68
2024/03/06 08:06:08;;;;;;;55.63;28.88;;;7.30;99.90;;;;;;5025317;28;20099;-68
2024/03/06 08:08:35;;;;;;;57.80;29.88;;;7.30;99.90;;;;;;5027938;28;20049;-68
2024/03/06 08:11:03;;;;;;;56.13;29.13;;;7.20;99.90;;;;;;5029900;28;20051;-67
2024/03/06 08:13:29;;;;;;;53.88;28.73;;;7.20;99.90;;;;;;5025963;28;20050;-68
2024/03/06 08:15:56;;;;;;;58.80;29.48;;;7.30;99.90;;;;;;5029552;28;20077;-68
2024/03/06 08:18:23;;;;;;;52.88;29.60;;;7.30;99.90;;;;;;5029961;28;20049;-68
2024/03/06 08:20:50;;;;;;;61.20;30.77;;;7.40;99.90;;;;;;5024747;28;20049;-68
2024/03/06 08:23:17;;;;;;;61.85;30.38;;;7.40;99.90;;;;;;5029865;28;20049;-68
2024/03/06 08:25:44;;;;;;;57.88;28.52;;;7.50;99.90;;;;;;5027874;28;20137;-68
2024/03/06 08:28:11;;;;;;;61.67;33.33;;;7.50;99.90;;;;;;5024304;28;20053;-68
2024/03/06 08:30:38;;;;;;;58.92;30.10;;;7.50;99.90;;;;;;5031165;28;20049;-68
2024/03/06 08:33:05;;;;;;;55.47;29.65;;;7.50;99.90;;;;;;5030689;28;20049;-67
2024/03/06 08:35:32;;;;;;;60.65;30.85;;;7.50;99.90;;;;;;5025944;28;20053;-68
2024/03/06 08:38:00;;;;;;;65.30;30.80;;;7.50;99.90;;;;;;5030886;28;20045;-67
2024/03/06 08:40:28;;;;;;;66.95;32.33;;;7.50;99.90;;;;;;5026084;28;20049;-68
2024/03/06 08:42:55;;;;;;;64.10;29.17;;;7.60;99.90;;;;;;5032293;28;20496;-68
2024/03/06 08:45:23;;;;;;;65.63;30.55;;;7.60;99.90;;;;;;5024563;28;20499;-69
2024/03/06 08:47:49;;;;;;;61.30;31.23;;;7.60;99.90;;;;;;5024733;28;20049;-68
2024/03/06 08:50:17;;;;;;;66.65;30.45;;;7.70;99.90;;;;;;5026110;28;20048;-68
2024/03/06 08:52:45;;;;;;;67.22;33.70;;;7.80;99.90;;;;;;5017417;28;20050;-68
2024/03/06 08:55:13;;;;;;;65.60;31.30;;;7.80;99.90;;;;;;5023357;28;20053;-68
2024/03/06 08:57:40;;;;;;;64.03;30.58;;;7.80;99.90;;;;;;5025896;28;20064;-69
2024/03/06 09:00:10;;;;;;;62.83;30.35;;;7.80;99.90;;;;;;5025377;28;20049;-69
2024/03/06 09:02:38;;;;;;;70.25;30.75;;;7.90;99.90;;;;;;5024249;28;20459;-71
2024/03/06 09:05:06;;;;;;;64.95;30.33;;;7.90;99.90;;;;;;5025937;28;20077;-68
2024/03/06 09:07:37;;;;;;;58.83;29.42;;;7.90;99.90;;;;;;5025759;28;20405;-68
2024/03/06 09:10:05;;;;;;;63.00;30.38;;;7.90;99.90;;;;;;5026317;28;20045;-68
2024/03/06 09:12:32;;;;;;;66.35;31.02;;;8.00;99.90;;;;;;5025480;28;20056;-68
2024/03/06 09:15:00;;;;;;;63.33;28.67;;;8.00;99.90;;;;;;5025728;28;20049;-68
2024/03/06 09:17:27;;;;;;;66.00;29.63;;;8.00;99.90;;;;;;5025907;28;20098;-68
2024/03/06 09:19:54;;;;;;;55.95;28.58;;;8.10;99.90;;;;;;5026800;28;20045;-68
2024/03/06 09:22:38;;;;;;;61.58;30.70;;;8.20;99.90;;;;;;5025849;28;20519;-66
2024/03/06 09:25:05;;;;;;;65.90;30.70;;;8.30;99.90;;;;;;5028328;28;20061;-66
2024/03/06 09:27:33;;;;;;;54.05;28.08;;;8.50;99.90;;;;;;5024300;28;20041;-67
2024/03/06 09:30:00;;;;;;;61.35;27.63;;;8.60;99.90;;;;;;5025018;28;20050;-67
2024/03/06 09:32:27;;;;;;;56.55;27.40;;;8.70;99.90;;;;;;5024330;28;20038;-67
2024/03/06 09:34:54;;;;;;;52.20;26.70;;;8.80;99.90;;;;;;5024123;28;20465;-67
2024/03/06 09:37:20;;;;;;;48.03;26.70;;;8.90;99.90;;;;;;5026014;28;20045;-66
2024/03/06 09:39:47;;;;;;;50.25;25.30;;;8.90;99.90;;;;;;5028377;28;20394;-67
2024/03/06 09:42:15;;;;;;;54.00;25.50;;;9.00;99.90;;;;;;5025836;28;20041;-67
2024/03/06 09:44:42;;;;;;;47.70;25.65;;;9.10;99.90;;;;;;5024587;28;20084;-67
2024/03/06 09:47:11;;;;;;;46.78;24.98;;;9.20;99.90;;;;;;5021623;28;20104;-67
2024/03/06 09:49:38;;;;;;;45.92;22.73;;;9.30;99.90;;;;;;5016438;28;20056;-67
2024/03/06 09:52:05;;;;;;;45.00;24.52;;;9.30;99.90;;;;;;5008276;28;20052;-67
2024/03/06 09:54:31;;;;;;;42.83;24.45;;;9.40;99.90;;;;;;5019179;28;20053;-67
2024/03/06 09:56:58;;;;;;;47.90;24.95;;;9.40;99.90;;;;;;5025751;28;20088;-67
2024/03/06 09:59:27;;;;;;;50.05;23.42;;;9.50;99.90;;;;;;5024828;28;20076;-67
2024/03/06 10:01:55;;;;;;;43.22;22.50;;;9.50;99.90;;;;;;5023645;28;20038;-68
2024/03/06 10:04:24;;;;;;;47.15;22.98;;;9.40;99.90;;;;;;5025064;28;20209;-67
2024/03/06 10:06:55;;;;;;;45.90;23.02;;;9.40;99.90;;;;;;5024562;28;20049;-67
2024/03/06 10:09:22;;;;;;;41.00;22.33;;;9.40;99.90;;;;;;5025524;28;20158;-67
2024/03/06 10:11:49;;;;;;;42.78;21.30;;;9.40;99.90;;;;;;5016439;28;20054;-67
2024/03/06 10:14:16;;;;;;;38.90;21.23;;;9.40;99.90;;;;;;5037568;28;20065;-68
2024/03/06 10:16:57;;;;;;;41.38;21.35;;;9.40;99.90;;;;;;5024966;28;20463;-68
2024/03/06 10:19:27;;;;;;;40.65;20.67;;;9.50;99.90;;;;;;5026502;28;20051;-68
2024/03/06 10:21:54;;;;;;;45.55;21.48;;;9.50;99.90;;;;;;5024677;28;20056;-67
2024/03/06 10:24:23;;;;;;;44.60;20.55;;;9.60;99.90;;;;;;5033858;28;20049;-68
2024/03/06 10:26:51;;;;;;;42.17;19.45;;;9.60;99.90;;;;;;5025749;28;20053;-68
2024/03/06 10:29:18;;;;;;;41.08;19.42;;;9.60;99.90;;;;;;5021035;28;20057;-68
2024/03/06 10:31:50;;;;;;;43.38;19.40;;;9.60;99.90;;;;;;5017985;28;20046;-67
2024/03/06 10:34:17;;;;;;;35.17;19.05;;;9.50;99.90;;;;;;5034910;28;20492;-69
2024/03/06 10:36:44;;;;;;;41.28;20.77;;;9.50;99.90;;;;;;5026180;28;20049;-66
2024/03/06 10:39:14;;;;;;;45.75;21.45;;;9.50;99.90;;;;;;5021779;28;20045;-67
2024/03/06 10:41:41;;;;;;;39.78;21.13;;;9.40;99.90;;;;;;5025194;28;20045;-68
2024/03/06 10:44:13;;;;;;;43.58;19.73;;;9.40;99.90;;;;;;5023911;28;20045;-68
2024/03/06 10:46:44;;;;;;;38.85;20.05;;;9.50;99.90;;;;;;5018632;28;20050;-68
2024/03/06 10:49:11;;;;;;;39.13;19.50;;;9.60;99.90;;;;;;5020112;28;20085;-67
2024/03/06 10:51:42;;;;;;;38.05;19.88;;;9.70;99.90;;;;;;5024532;28;20411;-68
2024/03/06 10:54:10;;;;;;;38.75;18.40;;;9.90;99.90;;;;;;5027588;28;20095;-67
2024/03/06 10:56:43;;;;;;;38.20;17.63;;;10.00;99.90;;;;;;5025373;28;20057;-68
2024/03/06 10:59:12;;;;;;;44.05;18.88;;;10.00;99.90;;;;;;5027184;28;20748;-67
2024/03/06 11:01:39;;;;;;;34.30;18.35;;;10.00;99.90;;;;;;5024466;28;20085;-67
2024/03/06 11:04:07;;;;;;;32.90;17.67;;;10.10;99.90;;;;;;5025420;28;20477;-68
2024/03/06 11:06:34;;;;;;;31.73;18.15;;;10.00;99.90;;;;;;5023021;28;20053;-68
2024/03/06 11:09:03;;;;;;;42.95;19.25;;;9.90;99.90;;;;;;5041439;28;20049;-67
2024/03/06 11:11:31;;;;;;;34.70;19.45;;;9.90;99.90;;;;;;5029062;28;20080;-68
2024/03/06 11:14:03;;;;;;;39.50;18.38;;;9.90;99.90;;;;;;5027007;28;20046;-68
2024/03/06 11:16:33;;;;;;;33.78;16.13;;;9.90;99.90;;;;;;5029131;28;20053;-67
2024/03/06 11:19:07;;;;;;;31.17;19.08;;;9.90;99.90;;;;;;5028284;28;20137;-68
2024/03/06 11:21:34;;;;;;;30.58;16.38;;;9.90;99.90;;;;;;5027490;28;20053;-67
2024/03/06 11:24:19;;;;;;;31.55;16.65;;;10.00;99.90;;;;;;5028644;28;20053;-68
2024/03/06 11:26:57;;;;;;;31.08;17.15;;;10.00;99.90;;;;;;5028767;28;20125;-67
2024/03/06 11:29:26;;;;;;;25.92;15.13;;;10.10;99.90;;;;;;5023872;28;20069;-67
2024/03/06 11:32:03;;;;;;;38.55;16.55;;;10.20;99.90;;;;;;5024937;28;20363;-68
2024/03/06 11:34:31;;;;;;;32.10;15.85;;;10.20;99.90;;;;;;5025598;28;20053;-67
2024/03/06 11:36:58;;;;;;;28.45;15.25;;;10.30;99.90;;;;;;5019805;28;20052;-68
2024/03/06 11:39:30;;;;;;;23.90;13.68;;;10.40;99.90;;;;;;5027181;28;20489;-68
2024/03/06 11:41:57;;;;;;;24.63;12.70;;;10.50;99.90;;;;;;5029386;28;20037;-67
2024/03/06 11:44:24;;;;;;;27.40;12.70;;;10.60;99.90;;;;;;5027383;28;20042;-68
2024/03/06 11:47:03;;;;;;;27.52;13.65;;;10.70;99.90;;;;;;5025983;28;20492;-68
2024/03/06 11:49:33;;;;;;;21.48;12.23;;;10.80;99.90;;;;;;5027992;28;20531;-68
2024/03/06 11:52:10;;;;;;;18.88;7.53;;;11.00;99.90;;;;;;5028753;28;20112;-68
2024/03/06 11:54:37;;;;;;;24.83;13.10;;;11.10;99.90;;;;;;5025812;28;20076;-68
2024/03/06 11:57:05;;;;;;;27.73;14.43;;;11.10;99.90;;;;;;5026773;28;20057;-67
2024/03/06 11:59:37;;;;;;;24.77;14.45;;;11.10;99.90;;;;;;5027855;28;20049;-68
2024/03/06 12:02:05;;;;;;;24.23;12.13;;;11.20;99.90;;;;;;5026765;28;20053;-67
2024/03/06 12:04:35;;;;;;;22.08;12.98;;;11.10;99.90;;;;;;5025532;28;20045;-68
2024/03/06 12:07:05;;;;;;;23.08;13.45;;;11.20;99.90;;;;;;5026799;28;20099;-67
2024/03/06 12:09:33;;;;;;;28.38;13.57;;;11.30;99.90;;;;;;5025976;28;20586;-67
2024/03/06 12:12:06;;;;;;;21.95;11.68;;;11.30;99.90;;;;;;5021467;28;20041;-67
2024/03/06 12:14:35;;;;;;;23.02;11.45;;;11.30;99.90;;;;;;5025103;28;20335;-68
2024/03/06 12:17:05;;;;;;;21.48;10.80;;;11.30;99.90;;;;;;5027010;28;20092;-68
2024/03/06 12:19:32;;;;;;;24.73;11.40;;;11.20;99.90;;;;;;5025600;28;20091;-68
2024/03/06 12:22:05;;;;;;;25.23;13.43;;;11.30;99.90;;;;;;5022356;28;20562;-66
2024/03/06 12:24:32;;;;;;;26.25;14.15;;;11.30;99.90;;;;;;5015970;28;20049;-67
2024/03/06 12:27:03;;;;;;;21.73;13.27;;;11.30;99.90;;;;;;5026004;28;20091;-67
2024/03/06 12:29:32;;;;;;;20.70;12.02;;;11.30;99.90;;;;;;5028669;28;20139;-68
2024/03/06 12:31:59;;;;;;;23.48;12.23;;;11.20;99.90;;;;;;5025041;28;20042;-67
2024/03/06 12:34:26;;;;;;;25.98;14.00;;;11.30;99.90;;;;;;5027323;28;20140;-67
2024/03/06 12:36:53;;;;;;;22.95;11.57;;;11.30;99.90;;;;;;5027074;28;20119;-67
2024/03/06 12:39:23;;;;;;;23.27;12.48;;;11.20;99.90;;;;;;5026075;28;20199;-67
2024/03/06 12:41:50;;;;;;;24.45;12.20;;;11.30;99.90;;;;;;5024685;28;20154;-67
2024/03/06 12:44:19;;;;;;;18.88;11.90;;;11.30;99.90;;;;;;5025997;28;20046;-66
2024/03/06 12:46:46;;;;;;;22.27;11.43;;;11.50;99.90;;;;;;5026537;28;20064;-66